NKS17 KFLL-MWCR
Flight info
| Callsign | NKS17 |
|---|---|
| Flight time | N/A |
| Altitude | 35000 |
| Route | MAYNR3 FUNDI UM335 ALVEK UM328 UCL UG877 RIKEL |
| Aircraft | A320/M-SDE3FGHIRWXYZ/LB1 |
Departure
| Time | N/A |
|---|---|
| Airport | Fort Lauderdale Hollywood International Airport (KFLL) |
Arrival
| Time | 2026-05-03 20:56 |
|---|---|
| Airport | Owen Roberts International Airport (MWCR) |
| Time | Latitude | Longitude | Altitude | Speed | Heading |
|---|---|---|---|---|---|
| 2026-05-03 20:18 | 21.91142 | -81.02091 | 34998 ft | 440 kts | 187° |
| 2026-05-03 20:18 | 21.85020 | -81.02169 | 34995 ft | 440 kts | 186° |
| 2026-05-03 20:19 | 21.78863 | -81.02246 | 35003 ft | 440 kts | 187° |
| 2026-05-03 20:19 | 21.72746 | -81.02321 | 35002 ft | 440 kts | 186° |
| 2026-05-03 20:20 | 21.66601 | -81.02399 | 35000 ft | 440 kts | 186° |
| 2026-05-03 20:20 | 21.60494 | -81.02474 | 34996 ft | 440 kts | 186° |
| 2026-05-03 20:21 | 21.54365 | -81.02550 | 34999 ft | 441 kts | 186° |
| 2026-05-03 20:21 | 21.48210 | -81.02627 | 34999 ft | 440 kts | 186° |
| 2026-05-03 20:22 | 21.42051 | -81.02702 | 35001 ft | 440 kts | 186° |
| 2026-05-03 20:22 | 21.35927 | -81.02780 | 34998 ft | 441 kts | 186° |
| 2026-05-03 20:23 | 21.29795 | -81.02857 | 35000 ft | 441 kts | 186° |
| 2026-05-03 20:23 | 21.23645 | -81.02934 | 35004 ft | 441 kts | 186° |
| 2026-05-03 20:24 | 21.17485 | -81.03011 | 34999 ft | 441 kts | 186° |
| 2026-05-03 20:24 | 21.11339 | -81.03086 | 34992 ft | 441 kts | 186° |
| 2026-05-03 20:25 | 21.05195 | -81.03161 | 34997 ft | 441 kts | 186° |
| 2026-05-03 20:25 | 20.99072 | -81.03236 | 35001 ft | 441 kts | 186° |
| 2026-05-03 20:26 | 20.92920 | -81.03311 | 35002 ft | 441 kts | 186° |
| 2026-05-03 20:26 | 20.86774 | -81.03387 | 35001 ft | 442 kts | 186° |
| 2026-05-03 20:27 | 20.80597 | -81.03464 | 34994 ft | 442 kts | 186° |
| 2026-05-03 20:27 | 20.74463 | -81.03541 | 34989 ft | 442 kts | 186° |
| 2026-05-03 20:28 | 20.68276 | -81.03616 | 34982 ft | 443 kts | 186° |
| 2026-05-03 20:28 | 20.62134 | -81.03693 | 34985 ft | 443 kts | 186° |
| 2026-05-03 20:29 | 20.55960 | -81.03768 | 34982 ft | 442 kts | 185° |
| 2026-05-03 20:29 | 20.49806 | -81.03844 | 34983 ft | 443 kts | 185° |
| 2026-05-03 20:30 | 20.43618 | -81.03921 | 34982 ft | 443 kts | 185° |
| 2026-05-03 20:30 | 20.37448 | -81.03996 | 34571 ft | 442 kts | 185° |
| 2026-05-03 20:30 | 20.34357 | -81.04036 | 33438 ft | 451 kts | 185° |
| 2026-05-03 20:31 | 20.31199 | -81.04081 | 32073 ft | 465 kts | 184° |
| 2026-05-03 20:31 | 20.27936 | -81.04125 | 30860 ft | 475 kts | 184° |
| 2026-05-03 20:31 | 20.24604 | -81.04163 | 29919 ft | 476 kts | 184° |
| 2026-05-03 20:31 | 20.21314 | -81.04198 | 29379 ft | 467 kts | 184° |
| 2026-05-03 20:32 | 20.18122 | -81.04233 | 28881 ft | 460 kts | 184° |
| 2026-05-03 20:32 | 20.14921 | -81.04269 | 28274 ft | 455 kts | 184° |
| 2026-05-03 20:32 | 20.11768 | -81.04308 | 27631 ft | 452 kts | 184° |
| 2026-05-03 20:32 | 20.08658 | -81.04347 | 26996 ft | 448 kts | 183° |
| 2026-05-03 20:33 | 20.05534 | -81.04387 | 26373 ft | 445 kts | 183° |
| 2026-05-03 20:33 | 20.02463 | -81.04475 | 25753 ft | 440 kts | 188° |
| 2026-05-03 20:33 | 19.99485 | -81.05152 | 25112 ft | 433 kts | 201° |
| 2026-05-03 20:33 | 19.96798 | -81.06473 | 24518 ft | 427 kts | 212° |
| 2026-05-03 20:34 | 19.94236 | -81.08118 | 23902 ft | 424 kts | 213° |
| 2026-05-03 20:34 | 19.91754 | -81.09750 | 23272 ft | 422 kts | 213° |
| 2026-05-03 20:34 | 19.89270 | -81.11386 | 22672 ft | 419 kts | 212° |
| 2026-05-03 20:34 | 19.86799 | -81.13007 | 22094 ft | 416 kts | 212° |
| 2026-05-03 20:35 | 19.84331 | -81.14619 | 21533 ft | 414 kts | 212° |
| 2026-05-03 20:35 | 19.81897 | -81.16206 | 20970 ft | 412 kts | 212° |
| 2026-05-03 20:35 | 19.79623 | -81.17988 | 20379 ft | 409 kts | 225° |
| 2026-05-03 20:35 | 19.77850 | -81.20369 | 19790 ft | 407 kts | 239° |
| 2026-05-03 20:36 | 19.76497 | -81.22965 | 19213 ft | 405 kts | 243° |
| 2026-05-03 20:36 | 19.75220 | -81.25617 | 18616 ft | 404 kts | 244° |
| 2026-05-03 20:36 | 19.73962 | -81.28262 | 18021 ft | 402 kts | 244° |
| 2026-05-03 20:36 | 19.72698 | -81.30924 | 17427 ft | 401 kts | 244° |
| 2026-05-03 20:37 | 19.71459 | -81.33537 | 16837 ft | 400 kts | 244° |
| 2026-05-03 20:37 | 19.70219 | -81.36159 | 16244 ft | 399 kts | 244° |
| 2026-05-03 20:37 | 19.68996 | -81.38752 | 15648 ft | 384 kts | 244° |
| 2026-05-03 20:37 | 19.67834 | -81.41208 | 15056 ft | 368 kts | 244° |
| 2026-05-03 20:38 | 19.66696 | -81.43620 | 14416 ft | 361 kts | 244° |
| 2026-05-03 20:38 | 19.65588 | -81.45984 | 13711 ft | 365 kts | 244° |
| 2026-05-03 20:38 | 19.64467 | -81.48389 | 13005 ft | 365 kts | 244° |
| 2026-05-03 20:38 | 19.63351 | -81.50788 | 12255 ft | 358 kts | 244° |
| 2026-05-03 20:39 | 19.62246 | -81.53119 | 11498 ft | 352 kts | 240° |
| 2026-05-03 20:39 | 19.60712 | -81.55035 | 10729 ft | 344 kts | 216° |
| 2026-05-03 20:39 | 19.58553 | -81.56039 | 9992 ft | 335 kts | 192° |
| 2026-05-03 20:39 | 19.56290 | -81.56159 | 9275 ft | 326 kts | 175° |
| 2026-05-03 20:40 | 19.54062 | -81.55926 | 8699 ft | 314 kts | 174° |
| 2026-05-03 20:40 | 19.51907 | -81.55701 | 8163 ft | 303 kts | 174° |
| 2026-05-03 20:40 | 19.49857 | -81.55490 | 7604 ft | 295 kts | 174° |
| 2026-05-03 20:40 | 19.47859 | -81.55286 | 7137 ft | 284 kts | 174° |
| 2026-05-03 20:41 | 19.45911 | -81.55089 | 6569 ft | 278 kts | 173° |
| 2026-05-03 20:41 | 19.44013 | -81.54896 | 5979 ft | 274 kts | 173° |
| 2026-05-03 20:41 | 19.42112 | -81.54703 | 5373 ft | 270 kts | 173° |
| 2026-05-03 20:41 | 19.40265 | -81.54516 | 4778 ft | 267 kts | 173° |
| 2026-05-03 20:42 | 19.38425 | -81.54328 | 4265 ft | 260 kts | 173° |
| 2026-05-03 20:42 | 19.36660 | -81.54150 | 3858 ft | 250 kts | 172° |
| 2026-05-03 20:42 | 19.34973 | -81.53980 | 3582 ft | 237 kts | 172° |
| 2026-05-03 20:42 | 19.33372 | -81.53819 | 3526 ft | 219 kts | 172° |
| 2026-05-03 20:43 | 19.31914 | -81.53674 | 3479 ft | 202 kts | 172° |
| 2026-05-03 20:43 | 19.30581 | -81.53540 | 3504 ft | 185 kts | 172° |
| 2026-05-03 20:43 | 19.29340 | -81.53414 | 3399 ft | 173 kts | 172° |
| 2026-05-03 20:43 | 19.28123 | -81.53289 | 3325 ft | 174 kts | 172° |
| 2026-05-03 20:44 | 19.26918 | -81.53165 | 3231 ft | 174 kts | 170° |
| 2026-05-03 20:44 | 19.25830 | -81.52731 | 3017 ft | 167 kts | 133° |
| 2026-05-03 20:44 | 19.25456 | -81.51601 | 2817 ft | 170 kts | 88° |
| 2026-05-03 20:44 | 19.25756 | -81.50382 | 2603 ft | 174 kts | 77° |
| 2026-05-03 20:45 | 19.26081 | -81.49143 | 2317 ft | 174 kts | 78° |
| 2026-05-03 20:45 | 19.26382 | -81.47919 | 2073 ft | 173 kts | 79° |
| 2026-05-03 20:45 | 19.26675 | -81.46701 | 1831 ft | 167 kts | 79° |
| 2026-05-03 20:45 | 19.26955 | -81.45544 | 1616 ft | 156 kts | 79° |
| 2026-05-03 20:46 | 19.27213 | -81.44468 | 1403 ft | 146 kts | 79° |
| 2026-05-03 20:46 | 19.27459 | -81.43442 | 1206 ft | 142 kts | 79° |
| 2026-05-03 20:46 | 19.27695 | -81.42438 | 1033 ft | 142 kts | 79° |
| 2026-05-03 20:46 | 19.27937 | -81.41423 | 839 ft | 142 kts | 80° |
| 2026-05-03 20:47 | 19.28168 | -81.40420 | 657 ft | 141 kts | 78° |
| 2026-05-03 20:47 | 19.28423 | -81.39405 | 484 ft | 142 kts | 79° |
| 2026-05-03 20:47 | 19.28655 | -81.38399 | 312 ft | 140 kts | 78° |
| 2026-05-03 20:47 | 19.28899 | -81.37398 | 141 ft | 143 kts | 80° |
| 2026-05-03 20:48 | 19.29136 | -81.36372 | 29 ft | 141 kts | 76° |
| 2026-05-03 20:48 | 19.29380 | -81.35384 | 141 ft | 147 kts | 79° |
| 2026-05-03 20:48 | 19.29597 | -81.34307 | 698 ft | 154 kts | 95° |
| 2026-05-03 20:48 | 19.29075 | -81.33409 | 1206 ft | 154 kts | 151° |
| 2026-05-03 20:49 | 19.27949 | -81.33375 | 1387 ft | 187 kts | 201° |
| 2026-05-03 20:49 | 19.26881 | -81.34383 | 1471 ft | 220 kts | 231° |
| 2026-05-03 20:49 | 19.25999 | -81.35744 | 1469 ft | 228 kts | 234° |
| 2026-05-03 20:49 | 19.25129 | -81.37139 | 1474 ft | 229 kts | 234° |
| 2026-05-03 20:50 | 19.24280 | -81.38589 | 1478 ft | 230 kts | 239° |
| 2026-05-03 20:50 | 19.23553 | -81.40148 | 1483 ft | 245 kts | 243° |
| 2026-05-03 20:50 | 19.22830 | -81.41802 | 1481 ft | 248 kts | 243° |
| 2026-05-03 20:50 | 19.22112 | -81.43465 | 1483 ft | 247 kts | 243° |
| 2026-05-03 20:51 | 19.21416 | -81.45115 | 1478 ft | 248 kts | 246° |
| 2026-05-03 20:51 | 19.21187 | -81.46899 | 1440 ft | 244 kts | 282° |
| 2026-05-03 20:51 | 19.21907 | -81.48454 | 1467 ft | 232 kts | 307° |
| 2026-05-03 20:51 | 19.22889 | -81.49766 | 1468 ft | 220 kts | 310° |
| 2026-05-03 20:52 | 19.23888 | -81.50890 | 1530 ft | 204 kts | 328° |
| 2026-05-03 20:52 | 19.25205 | -81.51190 | 1492 ft | 193 kts | 17° |
| 2026-05-03 20:52 | 19.26233 | -81.50389 | 1481 ft | 180 kts | 67° |
| 2026-05-03 20:52 | 19.26444 | -81.49183 | 1476 ft | 158 kts | 88° |
| 2026-05-03 20:53 | 19.26550 | -81.48080 | 1452 ft | 146 kts | 85° |
| 2026-05-03 20:53 | 19.26712 | -81.47016 | 1476 ft | 144 kts | 83° |
| 2026-05-03 20:53 | 19.26907 | -81.45987 | 1485 ft | 142 kts | 82° |
| 2026-05-03 20:53 | 19.27123 | -81.44961 | 1426 ft | 142 kts | 80° |
| 2026-05-03 20:54 | 19.27350 | -81.43947 | 1292 ft | 142 kts | 80° |
| 2026-05-03 20:54 | 19.27826 | -81.41928 | 946 ft | 141 kts | 79° |
| 2026-05-03 20:54 | 19.28079 | -81.40932 | 747 ft | 141 kts | 79° |
| 2026-05-03 20:55 | 19.28316 | -81.39934 | 561 ft | 140 kts | 81° |
| 2026-05-03 20:55 | 19.28536 | -81.38917 | 391 ft | 142 kts | 79° |
| 2026-05-03 20:55 | 19.28777 | -81.37904 | 238 ft | 142 kts | 80° |
| 2026-05-03 20:55 | 19.29015 | -81.36896 | 56 ft | 141 kts | 80° |
| 2026-05-03 20:56 | 19.29245 | -81.35925 | 15 ft | 123 kts | 76° |
| 2026-05-03 20:56 | 19.29406 | -81.35248 | 15 ft | 69 kts | 75° |
| 2026-05-03 20:56 | 19.29480 | -81.34940 | 15 ft | 11 kts | 76° |
| 2026-05-03 20:56 | 19.29504 | -81.34879 | 15 ft | 8 kts | 34° |
| 2026-05-03 20:57 | 19.29559 | -81.34895 | 15 ft | 9 kts | 310° |
| 2026-05-03 20:57 | 19.29572 | -81.34966 | 15 ft | 11 kts | 257° |
| 2026-05-03 20:57 | 19.29553 | -81.35050 | 15 ft | 12 kts | 256° |
| 2026-05-03 20:57 | 19.29531 | -81.35141 | 15 ft | 13 kts | 256° |
| 2026-05-03 20:58 | 19.29508 | -81.35238 | 15 ft | 14 kts | 255° |
| 2026-05-03 20:58 | 19.29484 | -81.35341 | 15 ft | 14 kts | 256° |
| 2026-05-03 20:58 | 19.29458 | -81.35448 | 15 ft | 15 kts | 256° |
| 2026-05-03 20:58 | 19.29435 | -81.35544 | 15 ft | 8 kts | 255° |
| 2026-05-03 20:59 | 19.29461 | -81.35593 | 15 ft | 9 kts | 327° |
| 2026-05-03 20:59 | 19.29470 | -81.35652 | 15 ft | 3 kts | 255° |
| 2026-05-03 20:59 | 19.29479 | -81.35679 | 15 ft | 5 kts | 328° |
| 2026-05-03 20:59 | 19.29520 | -81.35692 | 15 ft | 6 kts | 346° |
| 2026-05-03 21:00 | 19.29527 | -81.35693 | 15 ft | 0 kts | 346° |